createdAt,value
2018-11-26T00:01:34.198Z,5.30
2018-11-26T00:04:05.322Z,5.40
2018-11-26T00:06:35.375Z,5.30
2018-11-26T00:09:05.809Z,5.40
2018-11-26T00:11:37.344Z,5.40
2018-11-26T00:14:07.338Z,5.40
2018-11-26T00:16:37.360Z,5.40
2018-11-26T00:19:07.864Z,5.40
2018-11-26T00:21:37.737Z,5.40
2018-11-26T00:24:07.985Z,5.40
2018-11-26T00:26:37.719Z,5.40
2018-11-26T00:29:08.100Z,5.40
2018-11-26T00:31:37.884Z,5.40
2018-11-26T00:34:07.830Z,5.40
2018-11-26T00:36:37.716Z,5.40
2018-11-26T00:39:11.176Z,5.40
2018-11-26T00:41:41.085Z,5.40
2018-11-26T00:44:11.080Z,5.40
2018-11-26T00:46:40.961Z,5.40
2018-11-26T00:49:10.822Z,5.40
2018-11-26T00:51:40.495Z,5.40
2018-11-26T00:54:10.338Z,5.50
2018-11-26T00:56:40.072Z,5.50
2018-11-26T00:59:09.839Z,5.40
2018-11-26T01:01:39.697Z,5.50
2018-11-26T01:04:09.460Z,5.50
2018-11-26T01:06:39.398Z,5.50
2018-11-26T01:09:10.124Z,5.50
2018-11-26T01:11:39.963Z,5.50
2018-11-26T01:14:09.679Z,5.50
2018-11-26T01:16:39.496Z,5.50
2018-11-26T01:19:09.430Z,5.50
2018-11-26T01:21:39.165Z,5.50
2018-11-26T01:24:08.951Z,5.50
2018-11-26T01:26:38.685Z,5.50
2018-11-26T01:29:08.546Z,5.50
2018-11-26T01:31:38.303Z,5.40
2018-11-26T01:34:08.167Z,5.50
2018-11-26T01:36:37.991Z,5.50
2018-11-26T01:39:09.899Z,5.50
2018-11-26T01:41:39.692Z,5.50
2018-11-26T01:44:09.648Z,5.50
2018-11-26T01:46:39.342Z,5.50
2018-11-26T01:49:09.068Z,5.40
2018-11-26T01:51:38.848Z,5.50
2018-11-26T01:54:08.773Z,5.50
2018-11-26T01:56:38.533Z,5.60
2018-11-26T01:59:08.489Z,5.60
2018-11-26T02:01:38.461Z,5.50
2018-11-26T02:04:08.191Z,5.60
2018-11-26T02:06:38.043Z,5.50
2018-11-26T02:09:07.906Z,5.60
2018-11-26T02:11:37.804Z,5.60
2018-11-26T02:14:07.854Z,5.60
2018-11-26T02:16:37.666Z,5.60
2018-11-26T02:19:07.647Z,5.60
2018-11-26T02:21:37.559Z,5.60
2018-11-26T02:24:07.422Z,5.60
2018-11-26T02:26:37.129Z,5.60
2018-11-26T02:29:07.477Z,5.60
2018-11-26T02:31:37.288Z,5.60
2018-11-26T02:34:07.120Z,5.60
2018-11-26T02:36:36.869Z,5.60
2018-11-26T02:39:08.205Z,5.60
2018-11-26T02:41:38.153Z,5.60
2018-11-26T02:44:07.995Z,5.60
2018-11-26T02:46:37.954Z,5.60
2018-11-26T02:49:08.108Z,5.60
2018-11-26T02:51:38.033Z,5.60
2018-11-26T02:54:07.879Z,5.60
2018-11-26T02:56:37.665Z,5.70
2018-11-26T02:59:07.839Z,5.70
2018-11-26T03:01:38.620Z,5.60
2018-11-26T03:04:08.659Z,5.60
2018-11-26T03:06:38.434Z,5.60
2018-11-26T03:09:08.986Z,5.60
2018-11-26T03:11:38.823Z,5.60
2018-11-26T03:14:08.702Z,5.60
2018-11-26T03:16:38.583Z,5.60
2018-11-26T03:19:08.367Z,5.60
2018-11-26T03:21:38.156Z,5.60
2018-11-26T03:24:08.227Z,5.60
2018-11-26T03:26:37.974Z,5.50
2018-11-26T03:29:08.275Z,5.60
2018-11-26T03:31:38.019Z,5.60
2018-11-26T03:34:07.963Z,5.60
2018-11-26T03:36:37.764Z,5.60
2018-11-26T03:39:08.935Z,5.60
2018-11-26T03:41:38.847Z,5.60
2018-11-26T03:44:08.620Z,5.70
2018-11-26T03:46:38.400Z,5.70
2018-11-26T03:49:08.245Z,5.60
2018-11-26T03:51:38.103Z,5.60
2018-11-26T03:54:08.036Z,5.60
2018-11-26T03:56:37.807Z,5.60
2018-11-26T03:59:07.571Z,5.70
2018-11-26T04:01:37.584Z,5.70
2018-11-26T04:04:07.581Z,5.70
2018-11-26T04:06:37.450Z,5.70
2018-11-26T04:09:09.063Z,5.70
2018-11-26T04:11:38.817Z,5.70
2018-11-26T04:14:08.647Z,5.60
2018-11-26T04:16:38.899Z,5.60
2018-11-26T04:19:08.692Z,5.60
2018-11-26T04:21:39.084Z,5.60
2018-11-26T04:24:08.800Z,5.60
2018-11-26T04:26:38.515Z,5.60
2018-11-26T04:29:08.875Z,5.70
2018-11-26T04:31:38.728Z,5.60
2018-11-26T04:34:08.587Z,5.60
2018-11-26T04:36:38.454Z,5.60
2018-11-26T04:39:09.506Z,5.60
2018-11-26T04:41:39.216Z,5.60
2018-11-26T04:44:09.001Z,5.60
2018-11-26T04:46:38.719Z,5.70
2018-11-26T04:49:08.442Z,5.60
2018-11-26T04:51:38.284Z,5.60
2018-11-26T04:54:08.096Z,5.70
2018-11-26T04:56:38.139Z,5.60
2018-11-26T04:59:07.895Z,5.60
2018-11-26T05:01:37.704Z,5.60
2018-11-26T05:04:07.915Z,5.60
2018-11-26T05:06:37.752Z,5.60
2018-11-26T05:09:09.849Z,5.60
2018-11-26T05:11:39.960Z,5.70
2018-11-26T05:14:09.756Z,5.60
2018-11-26T05:16:39.628Z,5.60
2018-11-26T05:19:09.467Z,5.70
2018-11-26T05:21:39.181Z,5.60
2018-11-26T05:24:09.146Z,5.60
2018-11-26T05:26:38.963Z,5.60
2018-11-26T05:29:08.747Z,5.60
2018-11-26T05:31:38.891Z,5.60
2018-11-26T05:34:08.802Z,5.60
2018-11-26T05:36:38.592Z,5.60
2018-11-26T05:39:09.716Z,5.50
2018-11-26T05:41:39.447Z,5.80
2018-11-26T05:44:09.516Z,5.70
2018-11-26T05:46:39.281Z,5.70
2018-11-26T05:49:09.257Z,5.60
2018-11-26T05:51:39.114Z,5.60
2018-11-26T05:54:08.932Z,5.60
2018-11-26T05:56:38.727Z,5.60
2018-11-26T05:59:08.590Z,5.50
2018-11-26T06:01:38.492Z,5.50
2018-11-26T06:04:08.420Z,5.40
2018-11-26T06:06:38.395Z,5.50
2018-11-26T06:09:11.274Z,5.50
2018-11-26T06:11:41.752Z,5.50
2018-11-26T06:14:11.538Z,5.50
2018-11-26T06:16:41.347Z,5.50
2018-11-26T06:19:11.384Z,5.40
2018-11-26T06:21:41.364Z,5.40
2018-11-26T06:24:11.179Z,5.40
2018-11-26T06:26:41.027Z,5.40
2018-11-26T06:29:10.823Z,5.50
2018-11-26T06:31:40.621Z,5.40
2018-11-26T06:34:10.334Z,5.50
2018-11-26T06:36:40.002Z,5.40
2018-11-26T06:39:11.122Z,5.40
2018-11-26T06:41:40.908Z,5.40
2018-11-26T06:44:10.683Z,5.40
2018-11-26T06:46:40.517Z,5.40
2018-11-26T06:49:10.451Z,5.40
2018-11-26T06:51:40.264Z,5.40
2018-11-26T06:54:09.951Z,5.50
2018-11-26T06:56:42.655Z,5.50
2018-11-26T06:59:12.464Z,5.40
2018-11-26T07:01:43.583Z,5.40
2018-11-26T07:04:13.467Z,5.50
2018-11-26T07:06:43.600Z,5.50
2018-11-26T07:09:13.535Z,5.50
2018-11-26T07:11:44.241Z,5.50
2018-11-26T07:14:14.262Z,5.50
2018-11-26T07:16:44.008Z,5.50
2018-11-26T07:19:13.853Z,5.50
2018-11-26T07:21:43.671Z,5.50
2018-11-26T07:24:13.474Z,5.50
2018-11-26T07:26:43.260Z,5.50
2018-11-26T07:29:13.779Z,5.50
2018-11-26T07:31:43.499Z,5.60
2018-11-26T07:34:13.388Z,5.50
2018-11-26T07:36:43.236Z,5.60
2018-11-26T07:39:12.886Z,5.50
2018-11-26T07:41:42.693Z,5.50
2018-11-26T07:44:12.671Z,5.50
2018-11-26T07:46:42.463Z,5.60
2018-11-26T07:49:12.171Z,5.60
2018-11-26T07:51:41.889Z,5.70
2018-11-26T07:54:11.586Z,5.60
2018-11-26T07:56:41.376Z,5.70
2018-11-26T07:59:11.146Z,5.70
2018-11-26T08:01:41.127Z,5.70
2018-11-26T08:04:10.844Z,5.70
2018-11-26T08:06:40.849Z,5.70
2018-11-26T08:09:10.915Z,5.70
2018-11-26T08:11:40.897Z,5.70
2018-11-26T08:14:11.379Z,5.70
2018-11-26T08:16:41.252Z,5.70
2018-11-26T08:19:11.023Z,5.80
2018-11-26T08:21:40.888Z,5.80
2018-11-26T08:24:10.812Z,5.80
2018-11-26T08:26:40.687Z,5.80
2018-11-26T08:29:10.667Z,5.80
2018-11-26T08:31:40.490Z,5.80
2018-11-26T08:34:10.191Z,5.80
2018-11-26T08:36:44.442Z,5.90
2018-11-26T08:39:19.801Z,5.90
2018-11-26T08:41:53.951Z,5.90
2018-11-26T08:44:27.808Z,6.10
2018-11-26T08:47:04.006Z,6.10
2018-11-26T08:49:33.848Z,6.10
2018-11-26T08:52:05.707Z,6.10
2018-11-26T08:54:35.507Z,6.10
2018-11-26T08:57:05.554Z,6.10
2018-11-26T08:59:35.544Z,6.10
2018-11-26T09:02:09.472Z,6.10
2018-11-26T09:04:44.880Z,6.10
2018-11-26T09:07:15.157Z,6.10
2018-11-26T09:09:45.013Z,6.20
2018-11-26T09:12:14.948Z,6.20
2018-11-26T09:14:44.641Z,6.20
2018-11-26T09:17:14.450Z,6.20
2018-11-26T09:19:44.339Z,6.20
2018-11-26T09:22:14.103Z,6.20
2018-11-26T09:24:43.923Z,6.20
2018-11-26T09:27:13.856Z,6.20
2018-11-26T09:29:43.735Z,6.30
2018-11-26T09:32:13.523Z,6.30
2018-11-26T09:34:43.258Z,6.30
2018-11-26T09:37:13.295Z,6.30
2018-11-26T09:39:43.043Z,6.40
2018-11-26T09:42:13.230Z,6.40
2018-11-26T09:44:43.621Z,6.40
2018-11-26T09:47:13.414Z,6.40
2018-11-26T09:49:43.139Z,6.50
2018-11-26T09:52:13.065Z,6.50
2018-11-26T09:54:42.880Z,6.50
2018-11-26T09:57:12.880Z,6.50
2018-11-26T09:59:42.626Z,6.50
2018-11-26T10:02:12.457Z,6.60
2018-11-26T10:04:42.329Z,6.60
2018-11-26T10:07:12.136Z,6.60
2018-11-26T10:09:41.876Z,6.60
2018-11-26T10:12:12.388Z,6.70
2018-11-26T10:14:42.263Z,6.70
2018-11-26T10:17:12.130Z,6.70
2018-11-26T10:19:41.824Z,6.70
2018-11-26T10:22:12.406Z,6.80
2018-11-26T10:24:42.791Z,6.80
2018-11-26T10:27:12.603Z,6.80
2018-11-26T10:29:43.400Z,6.90
2018-11-26T10:32:13.155Z,6.90
2018-11-26T10:34:43.151Z,7.00
2018-11-26T10:37:12.983Z,6.90
2018-11-26T10:39:42.880Z,6.90
2018-11-26T10:42:13.467Z,6.90
2018-11-26T10:44:43.341Z,6.90
2018-11-26T10:47:13.645Z,6.90
2018-11-26T10:49:44.605Z,6.90
2018-11-26T10:52:14.340Z,7.00
2018-11-26T10:54:44.228Z,7.00
2018-11-26T10:57:14.786Z,6.90
2018-11-26T10:59:45.475Z,6.90
2018-11-26T11:02:22.269Z,7.00
2018-11-26T11:04:52.112Z,6.80
2018-11-26T11:07:22.099Z,6.90
2018-11-26T11:09:51.904Z,6.90
2018-11-26T11:12:21.673Z,6.90
2018-11-26T11:14:51.433Z,6.80
2018-11-26T11:17:21.308Z,6.80
2018-11-26T11:19:51.217Z,6.90
2018-11-26T11:22:21.080Z,6.90
2018-11-26T11:24:51.073Z,6.90
2018-11-26T11:27:21.023Z,6.90
2018-11-26T11:29:51.413Z,6.90
2018-11-26T11:32:21.620Z,7.00
2018-11-26T11:34:51.541Z,6.90
2018-11-26T11:37:22.330Z,6.90
2018-11-26T11:39:52.093Z,7.00
2018-11-26T11:42:21.908Z,6.90
2018-11-26T11:44:51.660Z,6.90
2018-11-26T11:47:21.577Z,6.90
2018-11-26T11:49:51.334Z,7.00
2018-11-26T11:52:21.437Z,7.00
2018-11-26T11:54:51.224Z,7.00
2018-11-26T11:57:21.651Z,7.00
2018-11-26T11:59:52.148Z,7.00
2018-11-26T12:02:21.963Z,7.10
2018-11-26T12:04:51.935Z,7.10
2018-11-26T12:07:21.753Z,7.10
2018-11-26T12:09:51.569Z,7.10
2018-11-26T12:12:21.514Z,7.10
2018-11-26T12:14:51.297Z,7.20
2018-11-26T12:17:21.248Z,7.10
2018-11-26T12:19:51.093Z,7.20
2018-11-26T12:22:20.926Z,7.20
2018-11-26T12:24:50.745Z,7.10
2018-11-26T12:27:20.671Z,7.10
2018-11-26T12:29:50.309Z,7.10
2018-11-26T12:32:20.068Z,7.10
2018-11-26T12:34:49.889Z,7.00
2018-11-26T12:37:19.841Z,7.00
2018-11-26T12:39:49.584Z,7.00
2018-11-26T12:42:19.305Z,7.10
2018-11-26T12:44:51.577Z,7.10
2018-11-26T12:47:21.527Z,7.10
2018-11-26T12:49:51.381Z,7.10
2018-11-26T12:52:21.113Z,7.10
2018-11-26T12:54:50.874Z,7.10
2018-11-26T12:57:20.936Z,7.10
2018-11-26T12:59:50.680Z,7.00
2018-11-26T13:02:20.332Z,7.00
2018-11-26T13:04:50.086Z,7.10
2018-11-26T13:07:19.905Z,7.10
2018-11-26T13:09:49.786Z,7.10
2018-11-26T13:12:19.664Z,7.20
2018-11-26T13:14:50.104Z,7.20
2018-11-26T13:17:20.006Z,7.20
2018-11-26T13:19:49.672Z,7.20
2018-11-26T13:22:19.406Z,7.30
2018-11-26T13:24:49.294Z,7.30
2018-11-26T13:27:19.028Z,7.30
2018-11-26T13:29:48.980Z,7.20
2018-11-26T13:32:18.849Z,7.20
2018-11-26T13:34:48.624Z,7.20
2018-11-26T13:37:18.532Z,7.30
2018-11-26T13:39:48.345Z,7.30
2018-11-26T13:42:18.089Z,7.30
2018-11-26T13:44:47.941Z,7.20
2018-11-26T13:47:17.749Z,7.20
2018-11-26T13:49:47.480Z,7.30
2018-11-26T13:52:17.268Z,7.20
2018-11-26T13:54:47.236Z,7.30
2018-11-26T13:57:18.268Z,7.30
2018-11-26T13:59:48.249Z,7.20
2018-11-26T14:02:21.222Z,7.10
2018-11-26T14:04:51.832Z,7.10
2018-11-26T14:07:20.797Z,7.00
2018-11-26T14:09:51.105Z,6.90
2018-11-26T14:12:20.965Z,6.90
2018-11-26T14:14:51.750Z,6.90
2018-11-26T14:17:21.041Z,6.90
2018-11-26T14:19:51.364Z,6.90
2018-11-26T14:22:21.171Z,6.90
2018-11-26T14:24:51.184Z,6.80
2018-11-26T14:27:21.069Z,6.80
2018-11-26T14:29:51.006Z,6.80
2018-11-26T14:32:21.230Z,6.70
2018-11-26T14:34:50.808Z,6.70
2018-11-26T14:37:21.137Z,6.80
2018-11-26T14:39:50.897Z,6.70
2018-11-26T14:42:21.480Z,6.70
2018-11-26T14:44:51.272Z,6.70
2018-11-26T14:47:21.036Z,6.70
2018-11-26T14:49:50.813Z,6.60
2018-11-26T14:52:20.614Z,6.60
2018-11-26T14:54:50.329Z,6.60
2018-11-26T14:57:20.160Z,6.60
2018-11-26T14:59:49.987Z,6.60
2018-11-26T15:02:19.749Z,6.60
2018-11-26T15:04:49.580Z,6.60
2018-11-26T15:07:19.472Z,6.50
2018-11-26T15:09:49.313Z,6.50
2018-11-26T15:12:19.299Z,6.40
2018-11-26T15:14:49.152Z,6.40
2018-11-26T15:17:19.001Z,6.40
2018-11-26T15:19:48.756Z,6.40
2018-11-26T15:22:18.640Z,6.40
2018-11-26T15:24:48.370Z,6.40
2018-11-26T15:27:18.230Z,6.30
2018-11-26T15:29:47.914Z,6.30
2018-11-26T15:32:17.721Z,6.30
2018-11-26T15:34:47.546Z,6.30
2018-11-26T15:37:17.597Z,6.20
2018-11-26T15:39:47.477Z,6.20
2018-11-26T15:42:17.552Z,6.20
2018-11-26T15:44:47.289Z,6.10
2018-11-26T15:47:17.214Z,6.10
2018-11-26T15:49:47.111Z,6.10
2018-11-26T15:52:17.097Z,6.00
2018-11-26T15:54:47.152Z,6.00
2018-11-26T15:57:17.588Z,5.90
2018-11-26T15:59:47.533Z,5.90
2018-11-26T16:02:17.441Z,5.80
2018-11-26T16:04:47.176Z,5.80
2018-11-26T16:07:17.181Z,5.90
2018-11-26T16:09:46.925Z,5.90
2018-11-26T16:12:16.720Z,5.80
2018-11-26T16:14:46.544Z,5.80
2018-11-26T16:17:16.534Z,5.80
2018-11-26T16:19:46.397Z,5.80
2018-11-26T16:22:16.316Z,5.80
2018-11-26T16:24:46.222Z,5.80
2018-11-26T16:27:16.069Z,5.80
2018-11-26T16:29:46.034Z,5.70
2018-11-26T16:32:15.898Z,5.70
2018-11-26T16:34:45.734Z,5.70
2018-11-26T16:37:16.606Z,5.60
2018-11-26T16:39:46.549Z,5.60
2018-11-26T16:42:16.369Z,5.60
2018-11-26T16:44:46.109Z,5.60
2018-11-26T16:47:15.876Z,5.50
2018-11-26T16:49:45.922Z,5.50
2018-11-26T16:52:15.873Z,5.40
2018-11-26T16:54:45.670Z,5.40
2018-11-26T16:57:15.676Z,5.30
2018-11-26T16:59:45.483Z,5.30
2018-11-26T17:02:15.368Z,5.30
2018-11-26T17:04:45.388Z,5.30
2018-11-26T17:07:15.201Z,5.20
2018-11-26T17:09:45.297Z,5.20
2018-11-26T17:12:15.946Z,5.20
2018-11-26T17:14:46.430Z,5.10
2018-11-26T17:17:16.356Z,5.20
2018-11-26T17:19:46.773Z,5.20
2018-11-26T17:22:17.557Z,5.10
2018-11-26T17:24:47.652Z,5.10
2018-11-26T17:27:18.090Z,5.10
2018-11-26T17:29:47.995Z,5.10
2018-11-26T17:32:18.439Z,5.10
2018-11-26T17:34:48.297Z,5.00
2018-11-26T17:37:18.621Z,5.10
2018-11-26T17:39:48.398Z,5.00
2018-11-26T17:42:18.693Z,5.10
2018-11-26T17:44:48.489Z,5.10
2018-11-26T17:47:18.517Z,5.10
2018-11-26T17:49:48.249Z,5.00
2018-11-26T17:52:18.442Z,5.00
2018-11-26T17:54:48.225Z,5.00
2018-11-26T17:57:18.290Z,5.00
2018-11-26T17:59:48.231Z,5.10
2018-11-26T18:02:18.488Z,5.10
2018-11-26T18:04:48.385Z,5.10
2018-11-26T18:07:18.598Z,5.10
2018-11-26T18:09:48.344Z,5.00
2018-11-26T18:12:18.209Z,5.00
2018-11-26T18:14:48.074Z,4.90
2018-11-26T18:17:17.890Z,4.90
2018-11-26T18:19:47.666Z,5.00
2018-11-26T18:22:17.778Z,5.00
2018-11-26T18:24:47.627Z,5.00
2018-11-26T18:27:17.755Z,4.90
2018-11-26T18:29:47.758Z,4.90
2018-11-26T18:32:17.842Z,4.90
2018-11-26T18:34:47.617Z,4.90
2018-11-26T18:37:17.629Z,4.90
2018-11-26T18:39:47.637Z,4.80
2018-11-26T18:42:18.735Z,4.80
2018-11-26T18:44:47.454Z,4.80
2018-11-26T18:47:17.329Z,4.90
2018-11-26T18:49:47.218Z,4.90
2018-11-26T18:52:17.173Z,4.90
2018-11-26T18:54:46.956Z,4.90
2018-11-26T18:57:16.813Z,4.90
2018-11-26T18:59:46.850Z,4.80
2018-11-26T19:02:16.648Z,4.80
2018-11-26T19:04:46.592Z,4.80
2018-11-26T19:07:16.487Z,4.80
2018-11-26T19:09:46.309Z,4.80
2018-11-26T19:12:16.268Z,4.70
2018-11-26T19:14:46.258Z,4.70
2018-11-26T19:17:16.530Z,4.60
2018-11-26T19:19:46.591Z,4.70
2018-11-26T19:22:16.490Z,4.70
2018-11-26T19:24:46.553Z,4.70
2018-11-26T19:27:16.409Z,4.70
2018-11-26T19:29:46.225Z,4.60
2018-11-26T19:32:16.197Z,4.60
2018-11-26T19:34:46.049Z,4.60
2018-11-26T19:37:15.901Z,4.60
2018-11-26T19:39:45.916Z,4.60
2018-11-26T19:42:16.647Z,4.60
2018-11-26T19:44:46.571Z,4.60
2018-11-26T19:47:17.153Z,4.60
2018-11-26T19:49:46.990Z,4.60
2018-11-26T19:52:16.946Z,4.70
2018-11-26T19:54:46.882Z,4.60
2018-11-26T19:57:17.340Z,4.70
2018-11-26T19:59:47.566Z,4.70
2018-11-26T20:02:17.589Z,4.70
2018-11-26T20:04:52.649Z,4.70
2018-11-26T20:07:22.582Z,4.70
2018-11-26T20:09:52.418Z,4.60
2018-11-26T20:12:22.417Z,4.60
2018-11-26T20:14:52.274Z,4.60
2018-11-26T20:17:22.168Z,4.50
2018-11-26T20:19:52.209Z,4.50
2018-11-26T20:22:22.110Z,4.50
2018-11-26T20:24:52.541Z,4.50
2018-11-26T20:27:22.402Z,4.50
2018-11-26T20:29:52.319Z,4.40
2018-11-26T20:32:22.822Z,4.50
2018-11-26T20:34:52.677Z,4.50
2018-11-26T20:37:23.109Z,4.50
2018-11-26T20:39:52.966Z,4.50
2018-11-26T20:42:22.813Z,4.50
2018-11-26T20:44:52.790Z,4.50
2018-11-26T20:47:22.597Z,4.50
2018-11-26T20:49:52.521Z,4.50
2018-11-26T20:52:22.497Z,4.50
2018-11-26T20:54:52.434Z,4.50
2018-11-26T20:57:22.361Z,4.40
2018-11-26T20:59:52.263Z,4.40
2018-11-26T21:02:22.301Z,4.40
2018-11-26T21:04:52.204Z,4.40
2018-11-26T21:07:22.506Z,4.40
2018-11-26T21:09:52.409Z,4.40
2018-11-26T21:12:23.127Z,4.30
2018-11-26T21:14:52.914Z,4.30
2018-11-26T21:17:22.852Z,4.40
2018-11-26T21:19:52.809Z,4.30
2018-11-26T21:22:22.579Z,4.30
2018-11-26T21:24:52.878Z,4.30
2018-11-26T21:27:22.684Z,4.30
2018-11-26T21:29:52.570Z,4.30
2018-11-26T21:32:22.453Z,4.30
2018-11-26T21:34:52.263Z,4.30
2018-11-26T21:37:21.983Z,4.30
2018-11-26T21:39:51.805Z,4.30
2018-11-26T21:42:21.820Z,4.30
2018-11-26T21:44:51.569Z,4.20
2018-11-26T21:47:21.400Z,4.20
2018-11-26T21:49:51.118Z,4.20
2018-11-26T21:52:21.209Z,4.20
2018-11-26T21:54:51.302Z,4.20
2018-11-26T21:57:21.212Z,4.20
2018-11-26T21:59:51.596Z,4.20
2018-11-26T22:02:21.513Z,4.10
2018-11-26T22:04:51.286Z,4.20
2018-11-26T22:07:21.061Z,4.10
2018-11-26T22:09:51.609Z,4.20
2018-11-26T22:12:21.569Z,4.20
2018-11-26T22:14:51.528Z,4.20
2018-11-26T22:17:21.438Z,4.20
2018-11-26T22:19:51.179Z,4.20
2018-11-26T22:22:21.140Z,4.20
2018-11-26T22:24:50.908Z,4.20
2018-11-26T22:27:20.747Z,4.20
2018-11-26T22:29:50.582Z,4.20
2018-11-26T22:32:20.582Z,4.20
2018-11-26T22:37:25.505Z,4.20
2018-11-26T22:39:55.329Z,4.30
2018-11-26T22:42:25.109Z,4.20
2018-11-26T22:44:54.960Z,4.20
2018-11-26T22:47:24.727Z,4.20
2018-11-26T22:49:54.769Z,4.20
2018-11-26T22:52:24.761Z,4.20
2018-11-26T22:54:54.636Z,4.10
2018-11-26T22:57:24.961Z,4.20
2018-11-26T22:59:54.852Z,4.10
2018-11-26T23:02:25.548Z,4.20
2018-11-26T23:04:55.379Z,4.20
2018-11-26T23:07:26.106Z,4.20
2018-11-26T23:09:55.897Z,4.20
2018-11-26T23:12:25.665Z,4.20
2018-11-26T23:14:55.473Z,4.10
2018-11-26T23:17:25.424Z,4.20
2018-11-26T23:19:55.600Z,4.20
2018-11-26T23:22:25.456Z,4.20
2018-11-26T23:24:55.366Z,4.10
2018-11-26T23:27:25.265Z,4.10
2018-11-26T23:29:55.906Z,4.10
2018-11-26T23:32:25.787Z,4.20
2018-11-26T23:34:55.678Z,4.20
2018-11-26T23:37:25.621Z,4.20
2018-11-26T23:39:55.571Z,4.10
2018-11-26T23:42:25.514Z,4.20
2018-11-26T23:44:55.386Z,4.20
2018-11-26T23:47:25.395Z,4.20
2018-11-26T23:49:55.251Z,4.20
2018-11-26T23:52:25.708Z,4.20
2018-11-26T23:54:55.984Z,4.20
2018-11-26T23:57:25.877Z,4.20
2018-11-26T23:59:55.880Z,4.20
